sensor_id;sensor_type;location;lat;lon;timestamp;pressure;altitude;pressure_sealevel;temperature;humidity
48800;BME280;34611;47.964;7.982;2023-03-03T00:04:02;96908.69;;;9.18;49.58
48800;BME280;34611;47.964;7.982;2023-03-03T00:11:02;96915.66;;;9.18;49.58
48800;BME280;34611;47.964;7.982;2023-03-03T00:18:10;96918.16;;;9.19;49.33
48800;BME280;34611;47.964;7.982;2023-03-03T00:39:36;96915.66;;;9.18;49.38
48800;BME280;34611;47.964;7.982;2023-03-03T00:46:37;96912.13;;;9.19;49.39
48800;BME280;34611;47.964;7.982;2023-03-03T00:53:37;96932.88;;;9.19;49.39
48800;BME280;34611;47.964;7.982;2023-03-03T01:00:38;96924.25;;;9.18;49.39
48800;BME280;34611;47.964;7.982;2023-03-03T01:07:40;96938.19;;;9.17;49.53
48800;BME280;34611;47.964;7.982;2023-03-03T01:14:41;96933.81;;;9.18;49.49
48800;BME280;34611;47.964;7.982;2023-03-03T01:21:41;96934.63;;;9.18;49.64
48800;BME280;34611;47.964;7.982;2023-03-03T01:28:41;96921.66;;;9.18;49.30
48800;BME280;34611;47.964;7.982;2023-03-03T01:35:42;96923.34;;;9.19;49.55
48800;BME280;34611;47.964;7.982;2023-03-03T01:42:43;96926.03;;;9.18;49.65
48800;BME280;34611;47.964;7.982;2023-03-03T01:49:48;96919.91;;;9.19;49.59
48800;BME280;34611;47.964;7.982;2023-03-03T01:56:49;96907.88;;;9.18;49.61
48800;BME280;34611;47.964;7.982;2023-03-03T02:03:50;96912.13;;;9.19;49.55
48800;BME280;34611;47.964;7.982;2023-03-03T02:10:52;96903.50;;;9.18;49.61
48800;BME280;34611;47.964;7.982;2023-03-03T02:17:58;96902.59;;;9.19;49.54
48800;BME280;34611;47.964;7.982;2023-03-03T02:25:00;96903.50;;;9.18;49.53
48800;BME280;34611;47.964;7.982;2023-03-03T02:32:02;96899.16;;;9.19;49.63
48800;BME280;34611;47.964;7.982;2023-03-03T02:39:04;96892.22;;;9.19;49.61
48800;BME280;34611;47.964;7.982;2023-03-03T02:46:06;96889.72;;;9.18;49.55
48800;BME280;34611;47.964;7.982;2023-03-03T02:53:06;96885.34;;;9.18;49.59
48800;BME280;34611;47.964;7.982;2023-03-03T03:00:07;96887.13;;;9.18;49.62
48800;BME280;34611;47.964;7.982;2023-03-03T03:07:08;96888.78;;;9.19;49.59
48800;BME280;34611;47.964;7.982;2023-03-03T03:14:11;96875.94;;;9.17;49.69
48800;BME280;34611;47.964;7.982;2023-03-03T03:21:13;96866.28;;;9.19;49.71
48800;BME280;34611;47.964;7.982;2023-03-03T03:28:15;96879.34;;;9.18;49.68
48800;BME280;34611;47.964;7.982;2023-03-03T03:35:16;96886.19;;;9.19;49.70
48800;BME280;34611;47.964;7.982;2023-03-03T03:42:18;96902.59;;;9.19;49.84
48800;BME280;34611;47.964;7.982;2023-03-03T03:49:18;96900.00;;;9.19;49.64
48800;BME280;34611;47.964;7.982;2023-03-03T03:56:19;96894.81;;;9.19;49.72
48800;BME280;34611;47.964;7.982;2023-03-03T04:03:23;96901.75;;;9.19;49.80
48800;BME280;34611;47.964;7.982;2023-03-03T04:10:24;96906.09;;;9.18;49.57
48800;BME280;34611;47.964;7.982;2023-03-03T04:17:24;96913.88;;;9.18;49.85
48800;BME280;34611;47.964;7.982;2023-03-03T04:24:25;96914.72;;;9.19;49.82
48800;BME280;34611;47.964;7.982;2023-03-03T04:31:26;96924.25;;;9.18;49.83
48800;BME280;34611;47.964;7.982;2023-03-03T04:38:27;96920.75;;;9.19;49.68
48800;BME280;34611;47.964;7.982;2023-03-03T04:45:29;96911.28;;;9.18;49.67
48800;BME280;34611;47.964;7.982;2023-03-03T04:52:29;96917.31;;;9.19;49.76
48800;BME280;34611;47.964;7.982;2023-03-03T04:59:30;96919.06;;;9.18;49.71
48800;BME280;34611;47.964;7.982;2023-03-03T05:06:31;96922.50;;;9.19;49.60
48800;BME280;34611;47.964;7.982;2023-03-03T05:13:31;96925.94;;;9.19;49.72
48800;BME280;34611;47.964;7.982;2023-03-03T05:20:31;96924.25;;;9.18;49.71
48800;BME280;34611;47.964;7.982;2023-03-03T05:27:32;96921.66;;;9.18;49.94
48800;BME280;34611;47.964;7.982;2023-03-03T05:34:32;96924.25;;;9.18;49.91
48800;BME280;34611;47.964;7.982;2023-03-03T05:41:32;96925.09;;;9.19;49.71
48800;BME280;34611;47.964;7.982;2023-03-03T05:48:35;96934.53;;;9.20;49.72
48800;BME280;34611;47.964;7.982;2023-03-03T05:55:36;96940.66;;;9.19;49.82
48800;BME280;34611;47.964;7.982;2023-03-03T06:02:36;96944.91;;;9.20;49.89
48800;BME280;34611;47.964;7.982;2023-03-03T06:09:36;96951.88;;;9.19;49.85
48800;BME280;34611;47.964;7.982;2023-03-03T06:16:37;96955.38;;;9.18;49.80
48800;BME280;34611;47.964;7.982;2023-03-03T06:23:37;96951.88;;;9.19;49.74
48800;BME280;34611;47.964;7.982;2023-03-03T06:30:37;96958.81;;;9.19;49.87
48800;BME280;34611;47.964;7.982;2023-03-03T06:37:38;96953.63;;;9.19;49.82
48800;BME280;34611;47.964;7.982;2023-03-03T06:44:38;96965.75;;;9.18;49.92
48800;BME280;34611;47.964;7.982;2023-03-03T06:51:38;96965.66;;;9.20;50.07
48800;BME280;34611;47.964;7.982;2023-03-03T06:58:42;96971.78;;;9.19;49.91
48800;BME280;34611;47.964;7.982;2023-03-03T07:05:43;96979.44;;;9.20;49.96
48800;BME280;34611;47.964;7.982;2023-03-03T07:12:44;96991.59;;;9.20;49.88
48800;BME280;34611;47.964;7.982;2023-03-03T07:19:44;96988.16;;;9.19;50.05
48800;BME280;34611;47.964;7.982;2023-03-03T07:26:45;97000.31;;;9.19;50.04
48800;BME280;34611;47.964;7.982;2023-03-03T07:33:45;97005.38;;;9.20;50.08
48800;BME280;34611;47.964;7.982;2023-03-03T07:40:50;97012.44;;;9.18;49.87
48800;BME280;34611;47.964;7.982;2023-03-03T07:47:51;97015.03;;;9.18;49.92
48800;BME280;34611;47.964;7.982;2023-03-03T07:54:52;97025.31;;;9.20;50.04
48800;BME280;34611;47.964;7.982;2023-03-03T08:09:23;97039.09;;;9.20;49.76
48800;BME280;34611;47.964;7.982;2023-03-03T08:16:29;97040.03;;;9.19;50.04
48800;BME280;34611;47.964;7.982;2023-03-03T08:23:36;97034.84;;;9.19;50.12
48800;BME280;34611;47.964;7.982;2023-03-03T08:30:37;97045.22;;;9.19;50.05
48800;BME280;34611;47.964;7.982;2023-03-03T08:37:37;97040.88;;;9.20;50.10
48800;BME280;34611;47.964;7.982;2023-03-03T08:44:37;97041.81;;;9.19;50.03
48800;BME280;34611;47.964;7.982;2023-03-03T08:51:38;97040.88;;;9.20;50.20
48800;BME280;34611;47.964;7.982;2023-03-03T08:58:39;97038.28;;;9.20;50.10
48800;BME280;34611;47.964;7.982;2023-03-03T09:05:41;97046.88;;;9.20;50.16
48800;BME280;34611;47.964;7.982;2023-03-03T09:12:42;97046.06;;;9.20;50.10
48800;BME280;34611;47.964;7.982;2023-03-03T09:19:42;97041.69;;;9.20;50.19
48800;BME280;34611;47.964;7.982;2023-03-03T09:26:44;97040.03;;;9.19;50.19
48800;BME280;34611;47.964;7.982;2023-03-03T09:33:46;97041.69;;;9.20;50.11
48800;BME280;34611;47.964;7.982;2023-03-03T10:02:29;97044.28;;;9.20;50.17
48800;BME280;34611;47.964;7.982;2023-03-03T10:23:43;97046.88;;;9.20;50.07
48800;BME280;34611;47.964;7.982;2023-03-03T10:30:52;97040.75;;;9.21;50.13
48800;BME280;34611;47.964;7.982;2023-03-03T10:45:22;97046.88;;;9.20;50.28
48800;BME280;34611;47.964;7.982;2023-03-03T10:59:36;97045.09;;;9.21;50.22
48800;BME280;34611;47.964;7.982;2023-03-03T11:06:52;97038.16;;;9.21;50.46
48800;BME280;34611;47.964;7.982;2023-03-03T11:14:00;97038.16;;;9.21;50.21
48800;BME280;34611;47.964;7.982;2023-03-03T11:28:31;97034.72;;;9.21;50.33
48800;BME280;34611;47.964;7.982;2023-03-03T11:50:19;97022.59;;;9.21;50.31
48800;BME280;34611;47.964;7.982;2023-03-03T12:04:39;97026.84;;;9.22;50.28
48800;BME280;34611;47.964;7.982;2023-03-03T12:11:47;97025.19;;;9.21;50.47
48800;BME280;34611;47.964;7.982;2023-03-03T12:19:03;97013.97;;;9.21;50.37
48800;BME280;34611;47.964;7.982;2023-03-03T12:40:24;97001.84;;;9.21;50.33
48800;BME280;34611;47.964;7.982;2023-03-03T12:47:28;96987.94;;;9.22;50.48
48800;BME280;34611;47.964;7.982;2023-03-03T12:54:41;96987.09;;;9.22;50.40
48800;BME280;34611;47.964;7.982;2023-03-03T13:16:13;96984.41;;;9.23;50.46
48800;BME280;34611;47.964;7.982;2023-03-03T13:38:03;96988.75;;;9.23;50.61
48800;BME280;34611;47.964;7.982;2023-03-03T13:44:41;96977.53;;;9.22;50.45
48800;BME280;34611;47.964;7.982;2023-03-03T13:51:51;96976.72;;;9.22;50.48
48800;BME280;34611;47.964;7.982;2023-03-03T14:06:01;96977.53;;;9.22;50.67
48800;BME280;34611;47.964;7.982;2023-03-03T14:13:06;96973.19;;;9.23;50.53
48800;BME280;34611;47.964;7.982;2023-03-03T14:20:27;96974.03;;;9.23;50.66
48800;BME280;34611;47.964;7.982;2023-03-03T14:27:52;96971.44;;;9.23;50.67
48800;BME280;34611;47.964;7.982;2023-03-03T14:34:57;96965.41;;;9.23;50.60
48800;BME280;34611;47.964;7.982;2023-03-03T14:41:58;96967.88;;;9.24;50.64
48800;BME280;34611;47.964;7.982;2023-03-03T14:49:00;96962.69;;;9.24;50.69
48800;BME280;34611;47.964;7.982;2023-03-03T14:56:52;96961.28;;;9.31;50.56
48800;BME280;34611;47.964;7.982;2023-03-03T15:03:27;96961.78;;;9.25;51.49
48800;BME280;34611;47.964;7.982;2023-03-03T15:17:35;96956.56;;;9.25;51.28
48800;BME280;34611;47.964;7.982;2023-03-03T15:24:44;96957.41;;;9.26;51.54
48800;BME280;34611;47.964;7.982;2023-03-03T15:31:52;96954.00;;;9.25;51.34
48800;BME280;34611;47.964;7.982;2023-03-03T15:53:24;96972.16;;;9.25;51.52
48800;BME280;34611;47.964;7.982;2023-03-03T16:07:32;96972.97;;;9.26;51.54
48800;BME280;34611;47.964;7.982;2023-03-03T16:14:38;96969.56;;;9.25;51.68
48800;BME280;34611;47.964;7.982;2023-03-03T16:28:51;96990.06;;;9.28;51.87
48800;BME280;34611;47.964;7.982;2023-03-03T16:43:04;97010.81;;;9.28;51.69
48800;BME280;34611;47.964;7.982;2023-03-03T16:57:20;97027.31;;;9.27;51.67
48800;BME280;34611;47.964;7.982;2023-03-03T18:02:15;97095.69;;;9.26;51.38
48800;BME280;34611;47.964;7.982;2023-03-03T18:09:33;97098.19;;;9.28;51.43
48800;BME280;34611;47.964;7.982;2023-03-03T18:23:42;97115.53;;;9.27;51.32
48800;BME280;34611;47.964;7.982;2023-03-03T18:37:49;97124.22;;;9.26;51.44
48800;BME280;34611;47.964;7.982;2023-03-03T18:44:50;97126.81;;;9.26;51.42
48800;BME280;34611;47.964;7.982;2023-03-03T18:51:50;97133.69;;;9.27;51.42
48800;BME280;34611;47.964;7.982;2023-03-03T18:58:51;97142.66;;;9.35;51.90
48800;BME280;34611;47.964;7.982;2023-03-03T19:05:53;97134.41;;;9.29;52.07
48800;BME280;34611;47.964;7.982;2023-03-03T19:12:57;97145.97;;;9.37;52.13
48800;BME280;34611;47.964;7.982;2023-03-03T19:20:04;97146.41;;;9.30;52.63
48800;BME280;34611;47.964;7.982;2023-03-03T19:27:31;97151.59;;;9.30;52.00
48800;BME280;34611;47.964;7.982;2023-03-03T19:41:44;97154.31;;;9.29;51.96
48800;BME280;34611;47.964;7.982;2023-03-03T19:55:56;97166.44;;;9.28;51.69
48800;BME280;34611;47.964;7.982;2023-03-03T20:10:21;97171.63;;;9.28;51.84
48800;BME280;34611;47.964;7.982;2023-03-03T20:17:42;97179.41;;;9.28;51.81
48800;BME280;34611;47.964;7.982;2023-03-03T20:24:47;97190.63;;;9.29;51.64
48800;BME280;34611;47.964;7.982;2023-03-03T20:31:53;97195.00;;;9.28;51.51
48800;BME280;34611;47.964;7.982;2023-03-03T21:07:23;97197.69;;;9.27;51.76
48800;BME280;34611;47.964;7.982;2023-03-03T21:14:33;97211.38;;;9.29;51.55
48800;BME280;34611;47.964;7.982;2023-03-03T21:21:36;97209.72;;;9.28;51.62
48800;BME280;34611;47.964;7.982;2023-03-03T21:28:36;97210.56;;;9.28;51.70
48800;BME280;34611;47.964;7.982;2023-03-03T21:35:46;97210.56;;;9.28;51.56
48800;BME280;34611;47.964;7.982;2023-03-03T21:42:56;97210.56;;;9.28;51.55
48800;BME280;34611;47.964;7.982;2023-03-03T21:49:57;97207.97;;;9.28;51.73
48800;BME280;34611;47.964;7.982;2023-03-03T21:56:58;97208.91;;;9.27;51.50
48800;BME280;34611;47.964;7.982;2023-03-03T22:03:58;97216.56;;;9.29;51.73
48800;BME280;34611;47.964;7.982;2023-03-03T22:10:59;97216.69;;;9.27;51.75
48800;BME280;34611;47.964;7.982;2023-03-03T22:17:59;97220.94;;;9.28;51.61
48800;BME280;34611;47.964;7.982;2023-03-03T22:24:59;97213.16;;;9.28;51.62
48800;BME280;34611;47.964;7.982;2023-03-03T22:31:59;97212.31;;;9.28;51.63
48800;BME280;34611;47.964;7.982;2023-03-03T22:39:00;97209.72;;;9.28;51.73
48800;BME280;34611;47.964;7.982;2023-03-03T22:46:01;97209.63;;;9.29;51.71
48800;BME280;34611;47.964;7.982;2023-03-03T22:53:01;97220.00;;;9.29;51.78
48800;BME280;34611;47.964;7.982;2023-03-03T23:00:02;97215.75;;;9.28;51.69
48800;BME280;34611;47.964;7.982;2023-03-03T23:07:03;97214.91;;;9.28;51.61
48800;BME280;34611;47.964;7.982;2023-03-03T23:14:03;97205.38;;;9.28;51.77
48800;BME280;34611;47.964;7.982;2023-03-03T23:21:03;97203.72;;;9.27;51.71
48800;BME280;34611;47.964;7.982;2023-03-03T23:28:04;97197.59;;;9.28;51.64
48800;BME280;34611;47.964;7.982;2023-03-03T23:35:04;97209.72;;;9.28;51.61
48800;BME280;34611;47.964;7.982;2023-03-03T23:42:05;97215.75;;;9.28;51.79
48800;BME280;34611;47.964;7.982;2023-03-03T23:49:05;97214.81;;;9.29;51.64
48800;BME280;34611;47.964;7.982;2023-03-03T23:56:05;97217.50;;;9.28;51.80
